Airfield :
LOGIN :

Register | Disclaimer

   EN    FR    IT 

 










Legend :    VFR   Marginal VFR   IFR   Intensive IFR   Very Intensive IFR
Visi :
Ceiling :
>= 8 km
>= 3000ft
5 to 8 km
1000 to 3000 ft
1500m to 5 km
500 to 1000 ft
800 to 1500m
200 to 500 ft
< 800m
< 200 ft
Symbols :   Thunderstorms  Fog  Heavy snow  Heavy precipitations  Wind > 20 kt
SIGMETs :     Misc.  Thunderstorms  Icing  Turbulence  Mountain Waves  Volcanic Ashes






- Airport Elevation : 446 ft
- IATA code : VNE


LFRV - Vannes-Meucon

CURRENT METAR :
  • 291030Z AUTO 20011KT 160V250 9999 BKN015 OVC034 11/10 Q1007

EXPIRED METARs :
  • 291000Z AUTO 20009KT 170V230 9999 FEW008/// BKN012/// BKN017/// ///TCU 11/10 Q1007
  • 290930Z AUTO 21007KT 170V250 5000 -RA BR BKN005 BKN009 OVC013 10/10 Q1008
  • 290900Z AUTO 21011KT 170V240 9999 BKN014 BKN020 OVC029 11/09 Q1009
  • 290830Z AUTO 19007KT 160V220 9999 SCT017 OVC028 10/10 Q1009
  • 290800Z AUTO 20006KT 160V240 9999 FEW024 OVC033 10/10 Q1010
  • 290730Z AUTO 19006KT 9999 SCT013 SCT029 OVC034 10/10 Q1010
  • 290700Z AUTO 20006KT 170V240 9999 FEW014 BKN028 OVC046 10/10 Q1010
  • 290630Z AUTO 21007KT 180V240 9999 SCT006 BKN015 OVC052 10/10 Q1011
  • 290600Z AUTO 20006KT 180V240 9000 BKN005 BKN010 BKN016 10/10 Q1011

TAF N/A



MET'MAP, your aeronautical weather chart ! - Copyright ORBIFLY December 2007 - Disclaimer

ORBIFLY MET'MAP TEAM :

Programming & Development : Alexandra Zaïnal
Original concept : Baudouin d'Aumeries
Technical & hardware support : Manuel Goepfert
Assistance : Marc-Olivier Méhu




SOURCES & CREDITS :

   NOAA